EXS195 EGNX-EHAM
Flight info
| Callsign | EXS195 |
|---|---|
| Flight time | 0h 51m |
| Altitude | 35000 |
| Route | SAPCO Y53 DTY P166 BANTO P155 SIVDA P137 REDFA |
| Aircraft | B738/M-SDE2E3FGHIRWXY/LB1 |
Departure
| Time | 2026-04-29 22:17 |
|---|---|
| Airport | East Midlands Airport (EGNX) |
Arrival
| Time | 2026-04-29 23:09 |
|---|---|
| Airport | Amsterdam Airport Schiphol (EHAM) |
| Time | Latitude | Longitude | Altitude | Speed | Heading |
|---|---|---|---|---|---|
| 2026-04-29 21:58 | 52.82731 | -1.32870 | 300 ft | 0 kts | 178° |
| 2026-04-29 22:10 | 52.82745 | -1.32871 | 302 ft | 2 kts | 178° |
| 2026-04-29 22:10 | 52.82761 | -1.32872 | 301 ft | 2 kts | 178° |
| 2026-04-29 22:10 | 52.82777 | -1.32873 | 301 ft | 2 kts | 166° |
| 2026-04-29 22:10 | 52.82790 | -1.32881 | 300 ft | 2 kts | 131° |
| 2026-04-29 22:11 | 52.82795 | -1.32895 | 301 ft | 1 kts | 92° |
| 2026-04-29 22:11 | 52.82795 | -1.32911 | 301 ft | 2 kts | 85° |
| 2026-04-29 22:11 | 52.82795 | -1.32925 | 300 ft | 0 kts | 88° |
| 2026-04-29 22:13 | 52.82795 | -1.32922 | 300 ft | 2 kts | 88° |
| 2026-04-29 22:13 | 52.82819 | -1.32867 | 300 ft | 10 kts | 28° |
| 2026-04-29 22:14 | 52.82898 | -1.32859 | 300 ft | 13 kts | 348° |
| 2026-04-29 22:14 | 52.82928 | -1.32986 | 301 ft | 14 kts | 268° |
| 2026-04-29 22:14 | 52.82925 | -1.33174 | 301 ft | 18 kts | 268° |
| 2026-04-29 22:14 | 52.82920 | -1.33384 | 306 ft | 19 kts | 268° |
| 2026-04-29 22:15 | 52.82916 | -1.33625 | 304 ft | 23 kts | 269° |
| 2026-04-29 22:15 | 52.82912 | -1.33898 | 304 ft | 25 kts | 269° |
| 2026-04-29 22:15 | 52.82906 | -1.34206 | 300 ft | 29 kts | 271° |
| 2026-04-29 22:15 | 52.82906 | -1.34528 | 304 ft | 27 kts | 268° |
| 2026-04-29 22:16 | 52.82901 | -1.34792 | 304 ft | 12 kts | 268° |
| 2026-04-29 22:16 | 52.82920 | -1.34922 | 305 ft | 12 kts | 320° |
| 2026-04-29 22:16 | 52.83002 | -1.34938 | 304 ft | 12 kts | 357° |
| 2026-04-29 22:16 | 52.83062 | -1.34873 | 303 ft | 12 kts | 83° |
| 2026-04-29 22:17 | 52.83070 | -1.34454 | 301 ft | 74 kts | 88° |
| 2026-04-29 22:17 | 52.83094 | -1.33154 | 312 ft | 149 kts | 85° |
| 2026-04-29 22:17 | 52.83094 | -1.31324 | 1011 ft | 165 kts | 89° |
| 2026-04-29 22:17 | 52.83068 | -1.29436 | 2214 ft | 159 kts | 91° |
| 2026-04-29 22:18 | 52.83078 | -1.27541 | 3035 ft | 175 kts | 91° |
| 2026-04-29 22:18 | 52.83034 | -1.25442 | 3439 ft | 192 kts | 97° |
| 2026-04-29 22:18 | 52.82525 | -1.23309 | 3804 ft | 213 kts | 121° |
| 2026-04-29 22:18 | 52.81567 | -1.21262 | 4091 ft | 231 kts | 128° |
| 2026-04-29 22:19 | 52.80455 | -1.19296 | 4457 ft | 236 kts | 130° |
| 2026-04-29 22:19 | 52.79312 | -1.17331 | 4870 ft | 237 kts | 130° |
| 2026-04-29 22:19 | 52.78097 | -1.15488 | 5372 ft | 241 kts | 146° |
| 2026-04-29 22:19 | 52.76439 | -1.14823 | 5900 ft | 259 kts | 177° |
| 2026-04-29 22:20 | 52.74685 | -1.15827 | 6465 ft | 280 kts | 207° |
| 2026-04-29 22:20 | 52.73114 | -1.17783 | 6957 ft | 286 kts | 214° |
| 2026-04-29 22:20 | 52.71582 | -1.19891 | 7290 ft | 287 kts | 214° |
| 2026-04-29 22:20 | 52.70040 | -1.21983 | 7445 ft | 288 kts | 214° |
| 2026-04-29 22:21 | 52.68480 | -1.24055 | 7774 ft | 288 kts | 213° |
| 2026-04-29 22:21 | 52.66910 | -1.26121 | 8122 ft | 288 kts | 213° |
| 2026-04-29 22:21 | 52.65338 | -1.28172 | 8468 ft | 289 kts | 213° |
| 2026-04-29 22:21 | 52.63763 | -1.30218 | 8828 ft | 288 kts | 213° |
| 2026-04-29 22:22 | 52.62186 | -1.32262 | 9189 ft | 288 kts | 213° |
| 2026-04-29 22:22 | 52.60610 | -1.34304 | 9540 ft | 289 kts | 213° |
| 2026-04-29 22:22 | 52.58898 | -1.35953 | 9917 ft | 283 kts | 195° |
| 2026-04-29 22:22 | 52.57003 | -1.36591 | 10290 ft | 276 kts | 176° |
| 2026-04-29 22:23 | 52.55106 | -1.36307 | 10652 ft | 273 kts | 162° |
| 2026-04-29 22:23 | 52.53301 | -1.35337 | 11051 ft | 274 kts | 155° |
| 2026-04-29 22:23 | 52.51496 | -1.34119 | 11232 ft | 296 kts | 154° |
| 2026-04-29 22:23 | 52.49521 | -1.32736 | 11438 ft | 320 kts | 154° |
| 2026-04-29 22:24 | 52.47400 | -1.31254 | 11623 ft | 343 kts | 154° |
| 2026-04-29 22:24 | 52.45137 | -1.29690 | 11853 ft | 361 kts | 154° |
| 2026-04-29 22:24 | 52.42786 | -1.28084 | 12373 ft | 370 kts | 155° |
| 2026-04-29 22:24 | 52.40395 | -1.26463 | 13168 ft | 373 kts | 155° |
| 2026-04-29 22:25 | 52.37986 | -1.24836 | 13876 ft | 376 kts | 155° |
| 2026-04-29 22:25 | 52.35551 | -1.23193 | 14495 ft | 380 kts | 155° |
| 2026-04-29 22:25 | 52.33093 | -1.21537 | 15084 ft | 384 kts | 154° |
| 2026-04-29 22:25 | 52.30611 | -1.19864 | 15719 ft | 386 kts | 154° |
| 2026-04-29 22:26 | 52.28121 | -1.18189 | 16345 ft | 389 kts | 154° |
| 2026-04-29 22:26 | 52.25619 | -1.16479 | 16926 ft | 391 kts | 151° |
| 2026-04-29 22:26 | 52.23402 | -1.13959 | 17461 ft | 389 kts | 132° |
| 2026-04-29 22:26 | 52.21817 | -1.10419 | 18059 ft | 388 kts | 116° |
| 2026-04-29 22:27 | 52.20945 | -1.06263 | 18628 ft | 390 kts | 100° |
| 2026-04-29 22:27 | 52.20806 | -1.01848 | 19116 ft | 394 kts | 86° |
| 2026-04-29 22:27 | 52.21447 | -0.97493 | 19592 ft | 400 kts | 71° |
| 2026-04-29 22:27 | 52.22542 | -0.93303 | 20093 ft | 403 kts | 69° |
| 2026-04-29 22:28 | 52.23670 | -0.89108 | 20552 ft | 405 kts | 69° |
| 2026-04-29 22:28 | 52.24769 | -0.84850 | 21038 ft | 407 kts | 71° |
| 2026-04-29 22:28 | 52.25655 | -0.80465 | 21495 ft | 408 kts | 75° |
| 2026-04-29 22:28 | 52.26455 | -0.76005 | 21939 ft | 411 kts | 76° |
| 2026-04-29 22:29 | 52.26976 | -0.73028 | 22231 ft | 412 kts | 76° |
| 2026-04-29 22:29 | 52.28031 | -0.66985 | 22839 ft | 415 kts | 76° |
| 2026-04-29 22:29 | 52.28825 | -0.62487 | 23256 ft | 418 kts | 75° |
| 2026-04-29 22:29 | 52.29638 | -0.57923 | 23665 ft | 420 kts | 75° |
| 2026-04-29 22:30 | 52.30460 | -0.53326 | 24048 ft | 423 kts | 75° |
| 2026-04-29 22:30 | 52.31286 | -0.48713 | 24414 ft | 424 kts | 75° |
| 2026-04-29 22:30 | 52.32115 | -0.44080 | 24780 ft | 425 kts | 75° |
| 2026-04-29 22:30 | 52.32945 | -0.39424 | 25118 ft | 427 kts | 75° |
| 2026-04-29 22:31 | 52.33776 | -0.34753 | 25444 ft | 429 kts | 75° |
| 2026-04-29 22:31 | 52.34608 | -0.30058 | 25789 ft | 430 kts | 75° |
| 2026-04-29 22:31 | 52.35389 | -0.25335 | 26101 ft | 431 kts | 79° |
| 2026-04-29 22:31 | 52.35820 | -0.20485 | 26458 ft | 430 kts | 87° |
| 2026-04-29 22:32 | 52.35818 | -0.15612 | 26910 ft | 428 kts | 91° |
| 2026-04-29 22:32 | 52.35735 | -0.10762 | 27311 ft | 427 kts | 91° |
| 2026-04-29 22:32 | 52.35672 | -0.05891 | 27312 ft | 429 kts | 91° |
| 2026-04-29 22:32 | 52.35628 | -0.01015 | 27321 ft | 427 kts | 91° |
| 2026-04-29 22:33 | 52.35553 | 0.03827 | 27330 ft | 425 kts | 94° |
| 2026-04-29 22:33 | 52.35217 | 0.08636 | 27332 ft | 425 kts | 97° |
| 2026-04-29 22:33 | 52.34791 | 0.13413 | 27337 ft | 424 kts | 98° |
| 2026-04-29 22:33 | 52.34339 | 0.18184 | 27328 ft | 424 kts | 98° |
| 2026-04-29 22:34 | 52.33892 | 0.22887 | 27335 ft | 424 kts | 98° |
| 2026-04-29 22:34 | 52.33444 | 0.27658 | 27336 ft | 424 kts | 98° |
| 2026-04-29 22:34 | 52.33001 | 0.32438 | 27330 ft | 424 kts | 98° |
| 2026-04-29 22:34 | 52.32564 | 0.37211 | 27333 ft | 425 kts | 97° |
| 2026-04-29 22:35 | 52.32129 | 0.41990 | 27341 ft | 425 kts | 97° |
| 2026-04-29 22:35 | 52.31694 | 0.46767 | 27338 ft | 425 kts | 97° |
| 2026-04-29 22:35 | 52.31257 | 0.51556 | 27327 ft | 425 kts | 97° |
| 2026-04-29 22:35 | 52.30820 | 0.56327 | 27331 ft | 425 kts | 97° |
| 2026-04-29 22:36 | 52.30382 | 0.61097 | 27339 ft | 425 kts | 97° |
| 2026-04-29 22:36 | 52.29940 | 0.65881 | 27336 ft | 425 kts | 97° |
| 2026-04-29 22:36 | 52.29496 | 0.70653 | 27339 ft | 425 kts | 97° |
| 2026-04-29 22:36 | 52.29057 | 0.75365 | 27339 ft | 426 kts | 97° |
| 2026-04-29 22:37 | 52.28608 | 0.80154 | 27331 ft | 426 kts | 97° |
| 2026-04-29 22:37 | 52.28158 | 0.84930 | 27328 ft | 426 kts | 97° |
| 2026-04-29 22:37 | 52.27705 | 0.89714 | 27322 ft | 426 kts | 97° |
| 2026-04-29 22:37 | 52.27251 | 0.94493 | 27323 ft | 426 kts | 97° |
| 2026-04-29 22:38 | 52.26796 | 0.99259 | 27333 ft | 426 kts | 97° |
| 2026-04-29 22:38 | 52.26338 | 1.04038 | 27327 ft | 426 kts | 97° |
| 2026-04-29 22:38 | 52.25877 | 1.08833 | 27322 ft | 426 kts | 97° |
| 2026-04-29 22:38 | 52.25414 | 1.13613 | 27326 ft | 426 kts | 97° |
| 2026-04-29 22:39 | 52.24950 | 1.18396 | 27331 ft | 426 kts | 97° |
| 2026-04-29 22:39 | 52.24484 | 1.23170 | 27332 ft | 426 kts | 97° |
| 2026-04-29 22:39 | 52.24015 | 1.27950 | 27328 ft | 426 kts | 97° |
| 2026-04-29 22:39 | 52.23550 | 1.32676 | 27334 ft | 426 kts | 97° |
| 2026-04-29 22:40 | 52.23232 | 1.35904 | 27334 ft | 427 kts | 97° |
| 2026-04-29 22:40 | 52.22604 | 1.42232 | 27342 ft | 427 kts | 97° |
| 2026-04-29 22:40 | 52.22128 | 1.47004 | 27342 ft | 427 kts | 97° |
| 2026-04-29 22:40 | 52.21649 | 1.51788 | 27346 ft | 427 kts | 97° |
| 2026-04-29 22:41 | 52.21169 | 1.56567 | 27354 ft | 427 kts | 97° |
| 2026-04-29 22:41 | 52.20687 | 1.61338 | 27353 ft | 427 kts | 98° |
| 2026-04-29 22:41 | 52.20359 | 1.64572 | 27351 ft | 427 kts | 98° |
| 2026-04-29 22:41 | 52.19874 | 1.69348 | 27350 ft | 427 kts | 98° |
| 2026-04-29 22:42 | 52.19393 | 1.74060 | 27349 ft | 427 kts | 98° |
| 2026-04-29 22:42 | 52.18902 | 1.78844 | 27355 ft | 427 kts | 98° |
| 2026-04-29 22:42 | 52.18410 | 1.83626 | 27352 ft | 427 kts | 98° |
| 2026-04-29 22:42 | 52.17916 | 1.88405 | 27351 ft | 427 kts | 98° |
| 2026-04-29 22:43 | 52.17420 | 1.93184 | 27351 ft | 427 kts | 98° |
| 2026-04-29 22:43 | 52.16923 | 1.97956 | 27360 ft | 427 kts | 98° |
| 2026-04-29 22:43 | 52.16424 | 2.02727 | 27355 ft | 427 kts | 98° |
| 2026-04-29 22:43 | 52.15922 | 2.07504 | 27353 ft | 427 kts | 98° |
| 2026-04-29 22:44 | 52.15419 | 2.12272 | 27354 ft | 427 kts | 98° |
| 2026-04-29 22:44 | 52.14914 | 2.17039 | 27352 ft | 427 kts | 98° |
| 2026-04-29 22:44 | 52.14403 | 2.21849 | 26764 ft | 430 kts | 98° |
| 2026-04-29 22:44 | 52.13896 | 2.26599 | 26173 ft | 424 kts | 98° |
| 2026-04-29 22:45 | 52.13392 | 2.31294 | 25584 ft | 418 kts | 98° |
| 2026-04-29 22:45 | 52.12901 | 2.35867 | 25013 ft | 413 kts | 98° |
| 2026-04-29 22:45 | 52.12241 | 2.41974 | 24245 ft | 407 kts | 98° |
| 2026-04-29 22:45 | 52.12000 | 2.44980 | 23826 ft | 403 kts | 90° |
| 2026-04-29 22:46 | 52.12271 | 2.49482 | 23228 ft | 397 kts | 77° |
| 2026-04-29 22:46 | 52.13176 | 2.53648 | 22876 ft | 388 kts | 64° |
| 2026-04-29 22:46 | 52.14502 | 2.57494 | 22543 ft | 394 kts | 60° |
| 2026-04-29 22:46 | 52.15925 | 2.61368 | 22186 ft | 402 kts | 60° |
| 2026-04-29 22:47 | 52.17376 | 2.65265 | 21813 ft | 399 kts | 60° |
| 2026-04-29 22:47 | 52.18798 | 2.69102 | 21462 ft | 392 kts | 60° |
| 2026-04-29 22:47 | 52.20174 | 2.72850 | 21109 ft | 377 kts | 60° |
| 2026-04-29 22:47 | 52.21491 | 2.76468 | 20790 ft | 366 kts | 60° |
| 2026-04-29 22:48 | 52.22780 | 2.80037 | 20477 ft | 364 kts | 60° |
| 2026-04-29 22:48 | 52.24051 | 2.83573 | 20183 ft | 369 kts | 60° |
| 2026-04-29 22:48 | 52.25355 | 2.87213 | 19858 ft | 371 kts | 60° |
| 2026-04-29 22:48 | 52.26650 | 2.90834 | 19527 ft | 367 kts | 60° |
| 2026-04-29 22:49 | 52.27928 | 2.94408 | 19202 ft | 362 kts | 60° |
| 2026-04-29 22:49 | 52.29189 | 2.97945 | 18889 ft | 359 kts | 60° |
| 2026-04-29 22:49 | 52.30445 | 3.01471 | 18559 ft | 358 kts | 60° |
| 2026-04-29 22:49 | 52.31695 | 3.04984 | 18202 ft | 357 kts | 60° |
| 2026-04-29 22:50 | 52.32938 | 3.08485 | 17865 ft | 355 kts | 60° |
| 2026-04-29 22:50 | 52.34174 | 3.11968 | 17535 ft | 353 kts | 60° |
| 2026-04-29 22:50 | 52.35403 | 3.15438 | 17221 ft | 352 kts | 60° |
| 2026-04-29 22:50 | 52.36628 | 3.18900 | 16911 ft | 350 kts | 60° |
| 2026-04-29 22:51 | 52.37844 | 3.22342 | 16600 ft | 349 kts | 61° |
| 2026-04-29 22:51 | 52.39057 | 3.25781 | 16294 ft | 348 kts | 61° |
| 2026-04-29 22:51 | 52.41456 | 3.32593 | 15676 ft | 346 kts | 61° |
| 2026-04-29 22:52 | 52.42654 | 3.36001 | 15378 ft | 345 kts | 61° |
| 2026-04-29 22:52 | 52.43849 | 3.39407 | 15077 ft | 344 kts | 61° |
| 2026-04-29 22:52 | 52.44941 | 3.42890 | 14754 ft | 342 kts | 71° |
| 2026-04-29 22:52 | 52.45540 | 3.46637 | 14477 ft | 337 kts | 77° |
| 2026-04-29 22:53 | 52.46052 | 3.50354 | 14180 ft | 332 kts | 77° |
| 2026-04-29 22:53 | 52.46555 | 3.54040 | 13855 ft | 327 kts | 77° |
| 2026-04-29 22:53 | 52.47051 | 3.57637 | 13546 ft | 320 kts | 77° |
| 2026-04-29 22:53 | 52.47537 | 3.61117 | 13262 ft | 314 kts | 77° |
| 2026-04-29 22:54 | 52.48023 | 3.64576 | 12987 ft | 308 kts | 77° |
| 2026-04-29 22:54 | 52.48505 | 3.67983 | 12720 ft | 304 kts | 77° |
| 2026-04-29 22:54 | 52.48982 | 3.71357 | 12459 ft | 303 kts | 77° |
| 2026-04-29 22:54 | 52.49460 | 3.74735 | 12195 ft | 302 kts | 77° |
| 2026-04-29 22:55 | 52.49934 | 3.78085 | 11927 ft | 300 kts | 77° |
| 2026-04-29 22:55 | 52.50400 | 3.81390 | 11666 ft | 293 kts | 77° |
| 2026-04-29 22:55 | 52.50853 | 3.84604 | 11404 ft | 285 kts | 77° |
| 2026-04-29 22:55 | 52.51292 | 3.87725 | 11158 ft | 277 kts | 77° |
| 2026-04-29 22:56 | 52.51720 | 3.90783 | 10922 ft | 273 kts | 77° |
| 2026-04-29 22:56 | 52.52143 | 3.93807 | 10694 ft | 270 kts | 77° |
| 2026-04-29 22:56 | 52.52317 | 3.96847 | 10442 ft | 268 kts | 94° |
| 2026-04-29 22:56 | 52.51859 | 3.99797 | 10219 ft | 267 kts | 108° |
| 2026-04-29 22:57 | 52.51183 | 4.02612 | 9961 ft | 264 kts | 110° |
| 2026-04-29 22:57 | 52.50491 | 4.05382 | 9714 ft | 261 kts | 110° |
| 2026-04-29 22:57 | 52.49817 | 4.08075 | 9483 ft | 257 kts | 109° |
| 2026-04-29 22:57 | 52.49144 | 4.10784 | 9252 ft | 255 kts | 109° |
| 2026-04-29 22:58 | 52.48474 | 4.13494 | 9031 ft | 256 kts | 109° |
| 2026-04-29 22:58 | 52.47803 | 4.16219 | 8803 ft | 259 kts | 109° |
| 2026-04-29 22:58 | 52.47124 | 4.18981 | 8581 ft | 263 kts | 109° |
| 2026-04-29 22:58 | 52.46438 | 4.21773 | 8328 ft | 264 kts | 109° |
| 2026-04-29 22:59 | 52.45748 | 4.24581 | 8088 ft | 265 kts | 109° |
| 2026-04-29 22:59 | 52.45063 | 4.27364 | 7846 ft | 262 kts | 110° |
| 2026-04-29 22:59 | 52.44385 | 4.30114 | 7610 ft | 259 kts | 109° |
| 2026-04-29 22:59 | 52.43716 | 4.32827 | 7375 ft | 255 kts | 109° |
| 2026-04-29 23:00 | 52.42996 | 4.35471 | 7154 ft | 255 kts | 120° |
| 2026-04-29 23:00 | 52.41710 | 4.37485 | 6927 ft | 261 kts | 147° |
| 2026-04-29 23:00 | 52.39997 | 4.38428 | 6679 ft | 268 kts | 170° |
| 2026-04-29 23:00 | 52.38099 | 4.38363 | 6443 ft | 270 kts | 180° |
| 2026-04-29 23:01 | 52.36257 | 4.38102 | 6193 ft | 268 kts | 181° |
| 2026-04-29 23:01 | 52.34407 | 4.37830 | 5937 ft | 266 kts | 181° |
| 2026-04-29 23:01 | 52.32574 | 4.37575 | 5693 ft | 263 kts | 180° |
| 2026-04-29 23:01 | 52.30757 | 4.37335 | 5468 ft | 260 kts | 180° |
| 2026-04-29 23:02 | 52.28956 | 4.37104 | 5239 ft | 258 kts | 180° |
| 2026-04-29 23:02 | 52.27168 | 4.36876 | 4997 ft | 256 kts | 180° |
| 2026-04-29 23:02 | 52.25407 | 4.36758 | 4758 ft | 249 kts | 167° |
| 2026-04-29 23:02 | 52.23861 | 4.37760 | 4535 ft | 234 kts | 138° |
| 2026-04-29 23:03 | 52.22806 | 4.39665 | 4372 ft | 220 kts | 118° |
| 2026-04-29 23:03 | 52.22123 | 4.41823 | 4181 ft | 209 kts | 113° |
| 2026-04-29 23:03 | 52.21528 | 4.43913 | 3973 ft | 198 kts | 112° |
| 2026-04-29 23:03 | 52.20991 | 4.46003 | 3509 ft | 198 kts | 104° |
| 2026-04-29 23:04 | 52.20831 | 4.48166 | 3258 ft | 187 kts | 92° |
| 2026-04-29 23:04 | 52.20796 | 4.50223 | 3060 ft | 176 kts | 91° |
| 2026-04-29 23:04 | 52.20961 | 4.52098 | 2892 ft | 169 kts | 69° |
| 2026-04-29 23:04 | 52.21482 | 4.53766 | 2682 ft | 161 kts | 70° |
| 2026-04-29 23:05 | 52.21971 | 4.55371 | 2489 ft | 155 kts | 67° |
| 2026-04-29 23:05 | 52.22487 | 4.56845 | 2286 ft | 144 kts | 65° |
| 2026-04-29 23:05 | 52.22988 | 4.58192 | 2134 ft | 138 kts | 65° |
| 2026-04-29 23:05 | 52.23491 | 4.59528 | 2077 ft | 139 kts | 64° |
| 2026-04-29 23:06 | 52.23996 | 4.60856 | 1936 ft | 138 kts | 64° |
| 2026-04-29 23:06 | 52.24500 | 4.62178 | 1757 ft | 136 kts | 64° |
| 2026-04-29 23:06 | 52.24993 | 4.63468 | 1573 ft | 129 kts | 64° |
| 2026-04-29 23:06 | 52.25442 | 4.64640 | 1412 ft | 117 kts | 63° |
| 2026-04-29 23:07 | 52.25866 | 4.65756 | 1199 ft | 114 kts | 63° |
| 2026-04-29 23:07 | 52.26280 | 4.66872 | 1073 ft | 116 kts | 63° |
| 2026-04-29 23:07 | 52.26718 | 4.68039 | 882 ft | 124 kts | 60° |
| 2026-04-29 23:07 | 52.27186 | 4.69209 | 732 ft | 124 kts | 60° |
| 2026-04-29 23:08 | 52.27648 | 4.70434 | 514 ft | 125 kts | 61° |
| 2026-04-29 23:08 | 52.28107 | 4.71615 | 341 ft | 121 kts | 62° |
| 2026-04-29 23:08 | 52.28549 | 4.72786 | 138 ft | 120 kts | 62° |
| 2026-04-29 23:08 | 52.28988 | 4.73932 | 18 ft | 118 kts | 61° |
| 2026-04-29 23:09 | 52.29373 | 4.74941 | -5 ft | 93 kts | 57° |
| 2026-04-29 23:09 | 52.29631 | 4.75608 | -5 ft | 43 kts | 58° |
| 2026-04-29 23:09 | 52.29775 | 4.75801 | -6 ft | 23 kts | 25° |
| 2026-04-29 23:09 | 52.29915 | 4.75921 | -7 ft | 22 kts | 28° |
| 2026-04-29 23:10 | 52.30028 | 4.76085 | -7 ft | 22 kts | 59° |
| 2026-04-29 23:10 | 52.30106 | 4.76295 | -7 ft | 21 kts | 59° |
| 2026-04-29 23:10 | 52.30183 | 4.76496 | -7 ft | 21 kts | 57° |
| 2026-04-29 23:10 | 52.30260 | 4.76688 | -7 ft | 20 kts | 58° |
| 2026-04-29 23:11 | 52.30332 | 4.76878 | -7 ft | 19 kts | 58° |
| 2026-04-29 23:11 | 52.30401 | 4.77060 | -7 ft | 19 kts | 58° |
| 2026-04-29 23:11 | 52.30468 | 4.77237 | -7 ft | 18 kts | 57° |
| 2026-04-29 23:11 | 52.30536 | 4.77409 | -7 ft | 17 kts | 57° |
| 2026-04-29 23:12 | 52.30608 | 4.77559 | -7 ft | 17 kts | 34° |
| 2026-04-29 23:12 | 52.30719 | 4.77595 | -7 ft | 16 kts | 2° |
| 2026-04-29 23:12 | 52.30830 | 4.77601 | -7 ft | 16 kts | 2° |
| 2026-04-29 23:12 | 52.30925 | 4.77612 | -7 ft | 11 kts | 4° |
| 2026-04-29 23:13 | 52.31000 | 4.77606 | -7 ft | 11 kts | 339° |
| 2026-04-29 23:13 | 52.31047 | 4.77501 | -7 ft | 12 kts | 305° |
| 2026-04-29 23:13 | 52.31074 | 4.77391 | -7 ft | 10 kts | 274° |
| 2026-04-29 23:13 | 52.31065 | 4.77316 | -7 ft | 6 kts | 219° |
| 2026-04-29 23:14 | 52.31032 | 4.77304 | -7 ft | 5 kts | 188° |
| 2026-04-29 23:14 | 52.31006 | 4.77302 | -7 ft | 2 kts | 180° |
| 2026-04-29 23:14 | 52.30996 | 4.77302 | -7 ft | 1 kts | 184° |
| 2026-04-29 23:14 | 52.30992 | 4.77302 | -7 ft | 0 kts | 186° |